| time (UTC) | temp F | wind direction | speed MPH | gust MPH | rain 1hr in | rain 24hr in | rain mn in | humidity % | barometer mb |
| 20260906020804 | 51 | 53 | 1.0 | 1.0 | 0.01 | 0.17 | 0.17 | 91 | 1022.8 |
| 20260906020303 | 51 | 53 | 1.0 | 1.0 | 0.01 | 0.17 | 0.17 | 91 | 1022.8 |
| 20260906015804 | 51 | 53 | 1.0 | 1.0 | 0.01 | 0.16 | 0.16 | 91 | 1022.6 |
| 20260906015306 | 51 | 53 | 1.0 | 1.0 | 0.01 | 0.16 | 0.16 | 91 | 1022.7 |
| 20260906014804 | 51 | 53 | 1.0 | 1.0 | 0.01 | 0.16 | 0.16 | 91 | 1022.7 |
| 20260906014303 | 51 | 53 | 1.0 | 1.0 | 0.01 | 0.16 | 0.16 | 91 | 1022.8 |
| 20260906013804 | 51 | 53 | 1.0 | 1.0 | 0.01 | 0.16 | 0.16 | 91 | 1022.5 |
| 20260906012804 | 51 | 53 | 1.0 | 1.0 | 0.01 | 0.15 | 0.15 | 91 | 1022.5 |
| 20260906012306 | 51 | 53 | 1.0 | 1.0 | 0.01 | 0.15 | 0.15 | 91 | 1022.4 |
| 20260906011804 | 51 | 53 | 1.0 | 1.0 | 0.01 | 0.15 | 0.15 | 91 | 1022.7 |
| 20260906011303 | 51 | 53 | 1.0 | 1.0 | 0.01 | 0.15 | 0.15 | 91 | 1022.5 |
| 20260906010804 | 51 | 53 | 1.0 | 1.0 | 0.02 | 0.15 | 0.15 | 91 | 1022.3 |
| 20260906010304 | 51 | 53 | 1.0 | 1.0 | 0.02 | 0.15 | 0.15 | 91 | 1022.4 |
| 20260906005804 | 51 | 53 | 1.0 | 1.0 | 0.02 | 0.15 | 0.15 | 91 | 1022.5 |
| 20260906005306 | 51 | 53 | 1.0 | 1.0 | 0.02 | 0.15 | 0.15 | 91 | 1022.3 |
| 20260906004804 | 50 | 53 | 1.0 | 1.0 | 0.02 | 0.15 | 0.15 | 91 | 1022.3 |
| 20260906004304 | 50 | 53 | 1.0 | 1.0 | 0.03 | 0.15 | 0.15 | 91 | 1022.4 |
| 20260906003303 | 50 | 53 | 1.0 | 1.0 | 0.03 | 0.15 | 0.15 | 91 | 1022.6 |
| 20260906002804 | 50 | 53 | 1.0 | 1.0 | 0.03 | 0.15 | 0.15 | 91 | 1022.5 |
| 20260906002306 | 50 | 53 | 1.0 | 1.0 | 0.04 | 0.15 | 0.15 | 91 | 1022.5 |
| 20260906001804 | 50 | 53 | 1.0 | 1.0 | 0.04 | 0.14 | 0.14 | 91 | 1022.5 |
| 20260906001304 | 50 | 53 | 1.0 | 1.0 | 0.04 | 0.14 | 0.14 | 91 | 1022.4 |
| 20260906000804 | 50 | 53 | 1.0 | 1.0 | 0.04 | 0.14 | 0.14 | 91 | 1022.3 |
| 20260906000304 | 50 | 53 | 1.0 | 1.0 | 0.03 | 0.13 | 0.13 | 91 | 1022.4 |
| 20260905235804 | 50 | 53 | 1.0 | 1.0 | 0.03 | 0.13 | 0.13 | 91 | 1022.5 |
| 20260905235306 | 50 | 53 | 1.0 | 1.0 | 0.03 | 0.13 | 0.13 | 91 | 1022.4 |
| 20260905234804 | 50 | 53 | 1.0 | 1.0 | 0.03 | 0.13 | 0.13 | 91 | 1022.4 |
| 20260905234303 | 50 | 53 | 1.0 | 1.0 | 0.02 | 0.12 | 0.12 | 91 | 1022.4 |
| 20260905233804 | 50 | 53 | 1.0 | 1.0 | 0.02 | 0.12 | 0.12 | 91 | 1022.3 |
| 20260905233304 | 50 | 53 | 1.0 | 1.0 | 0.02 | 0.12 | 0.12 | 91 | 1022.2 |
| 20260905232803 | 50 | 53 | 1.0 | 1.0 | 0.02 | 0.11 | 0.11 | 90 | 1022.5 |
| 20260905232306 | 50 | 53 | 1.0 | 1.0 | 0.02 | 0.11 | 0.11 | 90 | 1022.3 |
| 20260905231804 | 50 | 53 | 1.0 | 1.0 | 0.01 | 0.11 | 0.11 | 90 | 1022.3 |
| 20260905231304 | 50 | 53 | 1.0 | 1.0 | 0.02 | 0.11 | 0.11 | 90 | 1022.4 |
| 20260905230804 | 50 | 53 | 1.0 | 1.0 | 0.01 | 0.10 | 0.10 | 90 | 1022.3 |
| 20260905225804 | 50 | 53 | 1.0 | 1.0 | 0.01 | 0.10 | 0.10 | 90 | 1022.3 |
| 20260905225306 | 50 | 53 | 1.0 | 1.0 | 0.02 | 0.10 | 0.10 | 90 | 1022.2 |
| 20260905224804 | 50 | 53 | 1.0 | 1.0 | 0.02 | 0.10 | 0.10 | 90 | 1022.3 |
| 20260905224303 | 50 | 53 | 1.0 | 1.0 | 0.02 | 0.10 | 0.10 | 90 | 1022.1 |
| 20260905223804 | 50 | 53 | 1.0 | 1.0 | 0.02 | 0.10 | 0.10 | 90 | 1022.3 |
| 20260905223304 | 50 | 53 | 1.0 | 1.0 | 0.02 | 0.10 | 0.10 | 90 | 1022.4 |
| 20260905222804 | 50 | 53 | 1.0 | 1.0 | 0.02 | 0.09 | 0.09 | 91 | 1022.5 |
| 20260905222306 | 50 | 53 | 1.0 | 1.0 | 0.02 | 0.09 | 0.09 | 90 | 1022.4 |
| 20260905221804 | 50 | 53 | 1.0 | 1.0 | 0.02 | 0.09 | 0.09 | 90 | 1022.5 |
| 20260905221304 | 50 | 53 | 1.0 | 1.0 | 0.02 | 0.09 | 0.09 | 90 | 1022.4 |
| 20260905220803 | 50 | 53 | 1.0 | 1.0 | 0.03 | 0.09 | 0.09 | 90 | 1022.3 |
| 20260905220304 | 50 | 53 | 1.0 | 1.0 | 0.04 | 0.09 | 0.09 | 90 | 1022.6 |
| 20260905215804 | 50 | 53 | 1.0 | 1.0 | 0.04 | 0.09 | 0.09 | 90 | 1022.5 |
| 20260905215306 | 50 | 53 | 1.0 | 1.0 | 0.03 | 0.08 | 0.08 | 90 | 1022.5 |
| 20260905214804 | 50 | 53 | 1.0 | 1.0 | 0.03 | 0.08 | 0.08 | 90 | 1022.5 |
| 20260905214304 | 50 | 53 | 1.0 | 1.0 | 0.03 | 0.08 | 0.08 | 90 | 1022.6 |
| 20260905213804 | 50 | 53 | 1.0 | 1.0 | 0.03 | 0.08 | 0.08 | 90 | 1022.5 |
| 20260905213304 | 50 | 53 | 1.0 | 1.0 | 0.04 | 0.08 | 0.08 | 90 | 1022.3 |
| 20260905212803 | 50 | 53 | 1.0 | 1.0 | 0.04 | 0.07 | 0.07 | 90 | 1022.6 |
| 20260905212306 | 50 | 53 | 1.0 | 1.0 | 0.04 | 0.07 | 0.07 | 89 | 1022.4 |
| 20260905211803 | 50 | 53 | 1.0 | 1.0 | 0.05 | 0.07 | 0.07 | 89 | 1022.5 |
| 20260905211304 | 50 | 53 | 1.0 | 1.0 | 0.05 | 0.07 | 0.07 | 89 | 1022.4 |
| 20260905210804 | 50 | 53 | 1.0 | 1.0 | 0.04 | 0.06 | 0.06 | 89 | 1022.6 |
| 20260905210304 | 50 | 53 | 1.0 | 1.0 | 0.04 | 0.06 | 0.06 | 88 | 1022.4 |
| 20260905205804 | 50 | 53 | 1.0 | 1.0 | 0.04 | 0.05 | 0.05 | 88 | 1022.5 |
| 20260905205306 | 50 | 53 | 1.0 | 1.0 | 0.04 | 0.05 | 0.05 | 88 | 1022.5 |
| 20260905204804 | 51 | 53 | 1.0 | 1.0 | 0.04 | 0.05 | 0.05 | 88 | 1022.6 |
| 20260905204304 | 50 | 53 | 1.0 | 1.0 | 0.04 | 0.05 | 0.05 | 88 | 1022.5 |
| 20260905203804 | 50 | 53 | 1.0 | 1.0 | 0.04 | 0.05 | 0.05 | 88 | 1022.5 |
| 20260905203304 | 51 | 53 | 1.0 | 1.0 | 0.04 | 0.04 | 0.04 | 88 | 1022.8 |
| 20260905202804 | 50 | 53 | 1.0 | 1.0 | 0.03 | 0.04 | 0.04 | 89 | 1022.6 |
| 20260905202306 | 50 | 53 | 1.0 | 1.0 | 0.02 | 0.03 | 0.03 | 89 | 1022.7 |
| 20260905201804 | 50 | 53 | 1.0 | 1.0 | 0.02 | 0.02 | 0.02 | 88 | 1022.6 |
| 20260905201304 | 50 | 53 | 1.0 | 1.0 | 0.01 | 0.02 | 0.02 | 88 | 1022.7 |
| 20260905200304 | 50 | 53 | 1.0 | 1.0 | 0.01 | 0.02 | 0.02 | 87 | 1022.8 |
| 20260905195804 | 50 | 53 | 1.0 | 1.0 | 0.01 | 0.02 | 0.02 | 87 | 1022.8 |
| 20260905195306 | 50 | 53 | 1.0 | 1.0 | 0.00 | 0.01 | 0.01 | 86 | 1022.6 |
| 20260905194803 | 50 | 53 | 1.0 | 1.0 | 0.00 | 0.01 | 0.01 | 86 | 1022.7 |
| 20260905194304 | 50 | 53 | 1.0 | 1.0 | 0.00 | 0.01 | 0.01 | 86 | 1022.6 |
| 20260905193804 | 50 | 53 | 1.0 | 1.0 | 0.00 | 0.01 | 0.01 | 86 | 1022.7 |
| 20260905193304 | 50 | 53 | 1.0 | 1.0 | 0.00 | 0.01 | 0.01 | 86 | 1022.5 |
| 20260905192306 | 50 | 53 | 1.0 | 1.0 | 0.00 | 0.01 | 0.01 | 87 | 1022.4 |
| 20260905191803 | 50 | 53 | 1.0 | 1.0 | 0.00 | 0.01 | 0.01 | 86 | 1022.4 |
| 20260905191304 | 50 | 53 | 1.0 | 1.0 | 0.00 | 0.01 | 0.01 | 87 | 1022.5 |
| 20260905190804 | 50 | 53 | 1.0 | 1.0 | 0.00 | 0.01 | 0.01 | 86 | 1022.3 |
| 20260905190303 | 50 | 53 | 1.0 | 1.0 | 0.01 | 0.01 | 0.01 | 86 | 1022.2 |
| 20260905185804 | 50 | 53 | 1.0 | 1.0 | 0.01 | 0.01 | 0.01 | 84 | 1022.2 |
| 20260905185305 | 50 | 53 | 1.0 | 1.0 | 0.01 | 0.01 | 0.01 | 85 | 1022.4 |
| 20260905184804 | 50 | 53 | 1.0 | 1.0 | 0.01 | 0.01 | 0.01 | 85 | 1022.7 |
| 20260905184304 | 50 | 53 | 1.0 | 1.0 | 0.01 | 0.01 | 0.01 | 85 | 1022.7 |
| 20260905183804 | 50 | 53 | 1.0 | 1.0 | 0.01 | 0.01 | 0.01 | 86 | 1022.4 |
| 20260905183303 | 50 | 53 | 1.0 | 1.0 | 0.01 | 0.01 | 0.01 | 86 | 1022.7 |
| 20260905182804 | 50 | 53 | 1.0 | 1.0 | 0.01 | 0.01 | 0.01 | 86 | 1022.9 |
| 20260905182305 | 50 | 53 | 1.0 | 1.0 | 0.01 | 0.01 | 0.01 | 85 | 1022.6 |
| 20260905181804 | 50 | 53 | 1.0 | 1.0 | 0.00 | 0.00 | 0.00 | 85 | 1022.7 |
| 20260905181304 | 50 | 53 | 1.0 | 1.0 | 0.00 | 0.00 | 0.00 | 85 | 1022.8 |
| 20260905180804 | 50 | 53 | 1.0 | 1.0 | 0.00 | 0.00 | 0.00 | 84 | 1022.6 |
| 20260905180304 | 50 | 53 | 1.0 | 1.0 | 0.00 | 0.00 | 0.00 | 83 | 1022.8 |
| 20260905175804 | 50 | 53 | 1.0 | 1.0 | 0.00 | 0.00 | 0.00 | 83 | 1022.8 |
| 20260905175306 | 50 | 53 | 1.0 | 1.0 | 0.00 | 0.00 | 0.00 | 83 | 1022.8 |
| 20260905174803 | 50 | 53 | 1.0 | 1.0 | 0.00 | 0.00 | 0.00 | 82 | 1022.8 |
| 20260905174304 | 50 | 53 | 1.0 | 1.0 | 0.00 | 0.00 | 0.00 | 82 | 1022.9 |
| 20260905173803 | 50 | 53 | 1.0 | 1.0 | 0.00 | 0.00 | 0.00 | 81 | 1022.8 |
| 20260905173304 | 50 | 53 | 1.0 | 1.0 | 0.00 | 0.00 | 0.00 | 81 | 1022.8 |
| 20260905172803 | 50 | 53 | 1.0 | 1.0 | 0.00 | 0.00 | 0.00 | 80 | 1022.6 |
| 20260905172305 | 51 | 53 | 1.0 | 1.0 | 0.00 | 0.00 | 0.00 | 80 | 1022.5 |
| 20260905171803 | 51 | 53 | 1.0 | 1.0 | 0.00 | 0.00 | 0.00 | 80 | 1022.5 |
| 20260905171304 | 51 | 53 | 1.0 | 1.0 | 0.00 | 0.00 | 0.00 | 81 | 1022.3 |
| 20260905170804 | 50 | 53 | 1.0 | 1.0 | 0.00 | 0.00 | 0.00 | 81 | 1022.2 |
| 20260905170304 | 50 | 53 | 1.0 | 1.0 | 0.00 | 0.00 | 0.00 | 80 | 1022.3 |
| 20260905165803 | 50 | 53 | 1.0 | 1.0 | 0.00 | 0.00 | 0.00 | 80 | 1022.3 |
| 20260905165306 | 50 | 53 | 1.0 | 1.0 | 0.00 | 0.00 | 0.00 | 81 | 1022.2 |
| 20260905164804 | 50 | 53 | 1.0 | 1.0 | 0.00 | 0.00 | 0.00 | 81 | 1022.2 |
| 20260905164303 | 50 | 53 | 1.0 | 1.0 | 0.00 | 0.00 | 0.00 | 81 | 1022.2 |
| 20260905163804 | 49 | 53 | 1.0 | 1.0 | 0.00 | 0.00 | 0.00 | 82 | 1022.1 |
| 20260905163304 | 49 | 53 | 1.0 | 1.0 | 0.00 | 0.00 | 0.00 | 82 | 1022.4 |
| 20260905162306 | 49 | 53 | 1.0 | 1.0 | 0.00 | 0.01 | 0.00 | 82 | 1022.5 |
| 20260905161804 | 49 | 53 | 1.0 | 1.0 | 0.00 | 0.02 | 0.00 | 82 | 1022.5 |
| 20260905161304 | 49 | 53 | 1.0 | 1.0 | 0.00 | 0.02 | 0.00 | 82 | 1022.4 |
| 20260905160804 | 49 | 53 | 1.0 | 1.0 | 0.00 | 0.02 | 0.00 | 82 | 1022.5 |
| 20260905155804 | 49 | 53 | 1.0 | 1.0 | 0.00 | 0.02 | 0.00 | 82 | 1022.4 |
| 20260905155306 | 49 | 53 | 1.0 | 1.0 | 0.00 | 0.02 | 0.00 | 83 | 1022.2 |
| 20260905154304 | 49 | 53 | 1.0 | 1.0 | 0.00 | 0.02 | 0.00 | 82 | 1022.0 |
| 20260905153803 | 49 | 53 | 1.0 | 1.0 | 0.00 | 0.02 | 0.00 | 82 | 1022.4 |
| 20260905153304 | 49 | 53 | 1.0 | 1.0 | 0.00 | 0.02 | 0.00 | 82 | 1022.1 |
| 20260905152804 | 49 | 53 | 1.0 | 1.0 | 0.00 | 0.02 | 0.00 | 82 | 1022.1 |
| 20260905152306 | 49 | 53 | 1.0 | 1.0 | 0.00 | 0.02 | 0.00 | 83 | 1022.0 |
| 20260905151804 | 49 | 53 | 1.0 | 1.0 | 0.00 | 0.02 | 0.00 | 83 | 1022.1 |
| 20260905151304 | 49 | 53 | 1.0 | 1.0 | 0.00 | 0.02 | 0.00 | 83 | 1022.2 |
| 20260905150804 | 48 | 53 | 1.0 | 1.0 | 0.00 | 0.02 | 0.00 | 83 | 1022.2 |
| 20260905150304 | 48 | 53 | 1.0 | 1.0 | 0.00 | 0.02 | 0.00 | 83 | 1022.2 |
| 20260905145804 | 48 | 53 | 1.0 | 1.0 | 0.00 | 0.02 | 0.00 | 83 | 1022.3 |
| 20260905145306 | 48 | 53 | 1.0 | 1.0 | 0.00 | 0.02 | 0.00 | 83 | 1022.0 |
| 20260905144804 | 48 | 53 | 1.0 | 1.0 | 0.00 | 0.02 | 0.00 | 83 | 1022.0 |
| 20260905144304 | 48 | 53 | 1.0 | 1.0 | 0.00 | 0.02 | 0.00 | 83 | 1022.3 |
| 20260905143804 | 48 | 53 | 1.0 | 1.0 | 0.00 | 0.02 | 0.00 | 83 | 1022.2 |
| 20260905143304 | 48 | 53 | 1.0 | 1.0 | 0.00 | 0.02 | 0.00 | 83 | 1022.2 |
| 20260905142803 | 48 | 53 | 1.0 | 1.0 | 0.00 | 0.02 | 0.00 | 84 | 1021.9 |
| 20260905142306 | 48 | 53 | 1.0 | 1.0 | 0.00 | 0.02 | 0.00 | 84 | 1022.0 |
| 20260905141803 | 48 | 53 | 1.0 | 1.0 | 0.00 | 0.02 | 0.00 | 84 | 1022.0 |
| 20260905141304 | 48 | 53 | 1.0 | 1.0 | 0.00 | 0.02 | 0.00 | 84 | 1021.7 |
| 20260905140804 | 48 | 53 | 1.0 | 1.0 | 0.00 | 0.02 | 0.00 | 84 | 1021.5 |
| 20260905140304 | 48 | 53 | 1.0 | 1.0 | 0.00 | 0.02 | 0.00 | 84 | 1021.8 |
| 20260905135306 | 48 | 53 | 1.0 | 1.0 | 0.00 | 0.02 | 0.00 | 84 | 1021.6 |
| 20260905134804 | 48 | 53 | 1.0 | 1.0 | 0.00 | 0.02 | 0.00 | 85 | 1021.5 |
| 20260905134304 | 48 | 53 | 1.0 | 1.0 | 0.00 | 0.02 | 0.00 | 85 | 1021.7 |
| 20260905133804 | 47 | 53 | 1.0 | 1.0 | 0.00 | 0.02 | 0.00 | 85 | 1021.5 |
| 20260905132804 | 47 | 53 | 1.0 | 1.0 | 0.00 | 0.02 | 0.00 | 84 | 1021.6 |
| 20260905132305 | 47 | 53 | 1.0 | 1.0 | 0.00 | 0.02 | 0.00 | 84 | 1021.7 |
| 20260905131303 | 48 | 53 | 1.0 | 1.0 | 0.00 | 0.02 | 0.00 | 84 | 1021.7 |
| 20260905130804 | 48 | 53 | 1.0 | 1.0 | 0.00 | 0.02 | 0.00 | 84 | 1021.7 |
| 20260905125804 | 48 | 53 | 1.0 | 1.0 | 0.00 | 0.02 | 0.00 | 84 | 1021.6 |
| 20260905125306 | 48 | 53 | 1.0 | 1.0 | 0.00 | 0.02 | 0.00 | 84 | 1021.7 |
| 20260905124804 | 48 | 53 | 1.0 | 1.0 | 0.00 | 0.02 | 0.00 | 84 | 1021.5 |
| 20260905124304 | 48 | 53 | 1.0 | 1.0 | 0.00 | 0.02 | 0.00 | 84 | 1021.4 |
| 20260905123804 | 48 | 53 | 1.0 | 1.0 | 0.00 | 0.02 | 0.00 | 85 | 1021.4 |
| 20260905123304 | 48 | 53 | 1.0 | 1.0 | 0.00 | 0.02 | 0.00 | 85 | 1021.3 |
| 20260905122804 | 47 | 53 | 1.0 | 1.0 | 0.00 | 0.02 | 0.00 | 84 | 1021.2 |
| 20260905122306 | 48 | 53 | 1.0 | 1.0 | 0.00 | 0.02 | 0.00 | 84 | 1021.0 |
| 20260905121804 | 48 | 53 | 1.0 | 1.0 | 0.00 | 0.02 | 0.00 | 84 | 1021.1 |
| 20260905121303 | 48 | 53 | 1.0 | 1.0 | 0.00 | 0.02 | 0.00 | 84 | 1021.2 |
| 20260905120804 | 48 | 53 | 1.0 | 1.0 | 0.00 | 0.02 | 0.00 | 84 | 1021.4 |
| 20260905115804 | 48 | 53 | 1.0 | 1.0 | 0.00 | 0.02 | 0.00 | 84 | 1021.1 |
| 20260905115306 | 48 | 53 | 1.0 | 1.0 | 0.00 | 0.02 | 0.00 | 84 | 1021.1 |
| 20260905114804 | 48 | 53 | 1.0 | 1.0 | 0.00 | 0.02 | 0.00 | 84 | 1021.0 |
| 20260905113804 | 48 | 53 | 1.0 | 1.0 | 0.00 | 0.02 | 0.00 | 84 | 1020.9 |
| 20260905113304 | 48 | 53 | 1.0 | 1.0 | 0.00 | 0.02 | 0.00 | 84 | 1021.1 |
| 20260905112306 | 48 | 53 | 1.0 | 1.0 | 0.00 | 0.02 | 0.00 | 84 | 1021.1 |
| 20260905111805 | 48 | 53 | 1.0 | 1.0 | 0.00 | 0.02 | 0.00 | 84 | 1021.1 |
| 20260905111304 | 48 | 53 | 1.0 | 1.0 | 0.00 | 0.02 | 0.00 | 83 | 1021.1 |
| 20260905110804 | 48 | 53 | 1.0 | 1.0 | 0.00 | 0.02 | 0.00 | 83 | 1020.9 |
| 20260905110304 | 48 | 53 | 1.0 | 1.0 | 0.00 | 0.02 | 0.00 | 83 | 1021.0 |
| 20260905105804 | 48 | 53 | 1.0 | 1.0 | 0.00 | 0.02 | 0.00 | 83 | 1020.9 |
| 20260905105306 | 48 | 53 | 1.0 | 1.0 | 0.00 | 0.02 | 0.00 | 83 | 1020.7 |
| 20260905103803 | 48 | 53 | 1.0 | 1.0 | 0.00 | 0.02 | 0.00 | 83 | 1020.7 |
| 20260905103304 | 48 | 53 | 1.0 | 1.0 | 0.00 | 0.02 | 0.00 | 83 | 1020.8 |
| 20260905102804 | 48 | 53 | 1.0 | 1.0 | 0.00 | 0.02 | 0.00 | 83 | 1020.6 |
| 20260905102306 | 48 | 53 | 1.0 | 1.0 | 0.00 | 0.02 | 0.00 | 83 | 1020.8 |
| 20260905101804 | 48 | 53 | 1.0 | 1.0 | 0.00 | 0.02 | 0.00 | 84 | 1021.0 |
| 20260905101304 | 48 | 53 | 1.0 | 1.0 | 0.00 | 0.02 | 0.00 | 84 | 1020.6 |
| 20260905100804 | 48 | 53 | 1.0 | 1.0 | 0.00 | 0.02 | 0.00 | 83 | 1020.5 |
| 20260905100304 | 48 | 53 | 1.0 | 1.0 | 0.00 | 0.02 | 0.00 | 83 | 1020.6 |
| 20260905095804 | 48 | 53 | 1.0 | 1.0 | 0.00 | 0.02 | 0.00 | 83 | 1020.7 |
| 20260905095305 | 48 | 53 | 1.0 | 1.0 | 0.00 | 0.02 | 0.00 | 83 | 1020.5 |
| 20260905094804 | 49 | 53 | 1.0 | 1.0 | 0.00 | 0.02 | 0.00 | 83 | 1020.6 |
| 20260905094303 | 49 | 53 | 1.0 | 1.0 | 0.00 | 0.02 | 0.00 | 82 | 1020.7 |
| 20260905093804 | 49 | 53 | 1.0 | 1.0 | 0.00 | 0.02 | 0.00 | 82 | 1021.0 |
| 20260905092804 | 49 | 53 | 1.0 | 1.0 | 0.00 | 0.02 | 0.00 | 82 | 1020.9 |
| 20260905092306 | 49 | 53 | 1.0 | 1.0 | 0.00 | 0.02 | 0.00 | 82 | 1020.9 |
| 20260905091803 | 49 | 53 | 1.0 | 1.0 | 0.00 | 0.02 | 0.00 | 82 | 1020.6 |
| 20260905091304 | 49 | 53 | 1.0 | 1.0 | 0.00 | 0.02 | 0.00 | 82 | 1020.8 |
| 20260905090803 | 49 | 53 | 1.0 | 1.0 | 0.00 | 0.02 | 0.00 | 83 | 1020.9 |
| 20260905090304 | 49 | 53 | 1.0 | 1.0 | 0.00 | 0.02 | 0.00 | 82 | 1021.0 |
| 20260905085804 | 49 | 53 | 1.0 | 1.0 | 0.00 | 0.02 | 0.00 | 82 | 1020.6 |
| 20260905085306 | 49 | 53 | 1.0 | 1.0 | 0.00 | 0.02 | 0.00 | 82 | 1020.3 |
| 20260905084804 | 49 | 53 | 1.0 | 1.0 | 0.00 | 0.02 | 0.00 | 82 | 1020.4 |
| 20260905083804 | 49 | 53 | 1.0 | 1.0 | 0.00 | 0.02 | 0.00 | 82 | 1020.5 |
| 20260905083304 | 49 | 53 | 1.0 | 1.0 | 0.00 | 0.02 | 0.00 | 82 | 1020.5 |
| 20260905082804 | 49 | 53 | 1.0 | 1.0 | 0.00 | 0.02 | 0.00 | 82 | 1020.7 |
| 20260905082307 | 49 | 53 | 1.0 | 1.0 | 0.00 | 0.02 | 0.00 | 82 | 1020.7 |
| 20260905081804 | 49 | 53 | 1.0 | 1.0 | 0.00 | 0.02 | 0.00 | 82 | 1020.4 |
| 20260905081303 | 49 | 53 | 1.0 | 1.0 | 0.00 | 0.02 | 0.00 | 82 | 1020.5 |
| 20260905080804 | 49 | 53 | 1.0 | 1.0 | 0.00 | 0.02 | 0.00 | 83 | 1020.3 |
| 20260905075803 | 49 | 53 | 1.0 | 1.0 | 0.00 | 0.02 | 0.00 | 83 | 1020.3 |
| 20260905075306 | 49 | 53 | 1.0 | 1.0 | 0.00 | 0.02 | 0.00 | 83 | 1020.0 |
| 20260905074804 | 49 | 53 | 1.0 | 1.0 | 0.00 | 0.02 | 0.00 | 83 | 1020.4 |
| 20260905074304 | 49 | 53 | 1.0 | 1.0 | 0.00 | 0.02 | 0.00 | 83 | 1020.2 |
| 20260905073804 | 49 | 53 | 1.0 | 1.0 | 0.00 | 0.02 | 0.00 | 83 | 1020.2 |
| 20260905072804 | 49 | 53 | 1.0 | 1.0 | 0.00 | 0.02 | 0.00 | 83 | 1020.1 |
| 20260905072306 | 49 | 53 | 1.0 | 1.0 | 0.00 | 0.02 | 0.00 | 83 | 1020.3 |
| 20260905071804 | 49 | 53 | 1.0 | 1.0 | 0.00 | 0.02 | 0.00 | 83 | 1020.4 |
| 20260905071304 | 49 | 53 | 1.0 | 1.0 | 0.00 | 0.02 | 0.00 | 82 | 1020.0 |
| 20260905070803 | 50 | 53 | 1.0 | 1.0 | 0.00 | 0.02 | 0.00 | 82 | 1020.3 |
| 20260905070304 | 50 | 53 | 1.0 | 1.0 | 0.00 | 0.02 | 0.00 | 82 | 1020.2 |
| 20260905065804 | 50 | 53 | 1.0 | 1.0 | 0.00 | 0.02 | 0.00 | 83 | 1020.3 |
| 20260905065306 | 50 | 53 | 1.0 | 1.0 | 0.00 | 0.02 | 0.00 | 83 | 1020.3 |
| 20260905064804 | 50 | 53 | 1.0 | 1.0 | 0.00 | 0.02 | 0.00 | 84 | 1020.0 |
| 20260905064304 | 51 | 53 | 1.0 | 1.0 | 0.00 | 0.02 | 0.00 | 84 | 1019.9 |
| 20260905063803 | 51 | 53 | 1.0 | 1.0 | 0.00 | 0.02 | 0.00 | 84 | 1020.0 |
| 20260905063304 | 51 | 53 | 1.0 | 1.0 | 0.00 | 0.02 | 0.00 | 84 | 1020.1 |
| 20260905062804 | 51 | 53 | 1.0 | 1.0 | 0.00 | 0.02 | 0.00 | 84 | 1020.2 |
| 20260905062306 | 51 | 53 | 1.0 | 1.0 | 0.00 | 0.02 | 0.00 | 83 | 1020.3 |
| 20260905061804 | 51 | 53 | 1.0 | 1.0 | 0.00 | 0.02 | 0.00 | 83 | 1020.5 |
| 20260905061304 | 51 | 53 | 1.0 | 1.0 | 0.00 | 0.02 | 0.00 | 83 | 1020.1 |
| 20260905060804 | 51 | 53 | 1.0 | 1.0 | 0.00 | 0.02 | 0.00 | 83 | 1019.6 |
| 20260905060304 | 51 | 53 | 1.0 | 1.0 | 0.00 | 0.02 | 0.00 | 83 | 1019.5 |
| 20260905055804 | 51 | 53 | 1.0 | 1.0 | 0.00 | 0.02 | 0.02 | 83 | 1019.7 |
| 20260905055306 | 51 | 53 | 1.0 | 1.0 | 0.00 | 0.02 | 0.02 | 83 | 1019.4 |
| 20260905054804 | 51 | 53 | 1.0 | 1.0 | 0.00 | 0.02 | 0.02 | 84 | 1019.3 |
| 20260905054303 | 51 | 53 | 1.0 | 1.0 | 0.00 | 0.02 | 0.02 | 84 | 1019.5 |
| 20260905053804 | 51 | 53 | 1.0 | 1.0 | 0.00 | 0.02 | 0.02 | 84 | 1019.5 |
| 20260905053303 | 51 | 53 | 1.0 | 1.0 | 0.00 | 0.02 | 0.02 | 84 | 1019.3 |
| 20260905052306 | 51 | 53 | 1.0 | 1.0 | 0.00 | 0.02 | 0.02 | 84 | 1019.5 |
| 20260905051803 | 51 | 53 | 1.0 | 1.0 | 0.00 | 0.02 | 0.02 | 84 | 1019.4 |
| 20260905051304 | 51 | 53 | 1.0 | 1.0 | 0.00 | 0.02 | 0.02 | 84 | 1019.5 |
| 20260905050804 | 51 | 53 | 1.0 | 1.0 | 0.00 | 0.02 | 0.02 | 84 | 1019.3 |
| 20260905050303 | 51 | 53 | 1.0 | 1.0 | 0.00 | 0.02 | 0.02 | 84 | 1019.2 |
| 20260905045805 | 51 | 53 | 1.0 | 1.0 | 0.00 | 0.02 | 0.02 | 84 | 1019.1 |
| 20260905045305 | 51 | 53 | 1.0 | 1.0 | 0.00 | 0.02 | 0.02 | 84 | 1019.1 |
| 20260905044803 | 51 | 53 | 1.0 | 1.0 | 0.00 | 0.02 | 0.02 | 84 | 1019.1 |
| 20260905044304 | 51 | 53 | 1.0 | 1.0 | 0.00 | 0.02 | 0.02 | 83 | 1019.1 |
| 20260905043804 | 51 | 53 | 1.0 | 1.0 | 0.00 | 0.02 | 0.02 | 82 | 1019.3 |
| 20260905043304 | 51 | 53 | 1.0 | 1.0 | 0.00 | 0.02 | 0.02 | 82 | 1019.2 |
| 20260905042307 | 52 | 53 | 1.0 | 1.0 | 0.00 | 0.02 | 0.02 | 81 | 1018.8 |
| 20260905041804 | 52 | 53 | 1.0 | 1.0 | 0.00 | 0.02 | 0.02 | 81 | 1018.7 |
| 20260905041304 | 52 | 53 | 1.0 | 1.0 | 0.00 | 0.02 | 0.02 | 80 | 1018.7 |
| 20260905040804 | 52 | 53 | 1.0 | 1.0 | 0.00 | 0.02 | 0.02 | 81 | 1018.8 |
| 20260905040304 | 52 | 53 | 1.0 | 1.0 | 0.00 | 0.02 | 0.02 | 81 | 1018.7 |
| 20260905035804 | 52 | 53 | 1.0 | 1.0 | 0.00 | 0.02 | 0.02 | 81 | 1018.6 |
| 20260905034804 | 53 | 53 | 1.0 | 1.0 | 0.00 | 0.02 | 0.02 | 81 | 1018.4 |
| 20260905034304 | 53 | 53 | 1.0 | 1.0 | 0.00 | 0.02 | 0.02 | 81 | 1018.4 |
| 20260905033804 | 53 | 53 | 1.0 | 1.0 | 0.00 | 0.02 | 0.02 | 81 | 1018.5 |
| 20260905033304 | 53 | 53 | 1.0 | 1.0 | 0.00 | 0.02 | 0.02 | 81 | 1018.7 |
| 20260905032804 | 53 | 53 | 1.0 | 1.0 | 0.00 | 0.02 | 0.02 | 80 | 1018.4 |
| 20260905032306 | 53 | 53 | 1.0 | 1.0 | 0.00 | 0.02 | 0.02 | 79 | 1018.7 |
| 20260905031804 | 53 | 53 | 1.0 | 1.0 | 0.00 | 0.02 | 0.02 | 79 | 1018.6 |
| 20260905031304 | 53 | 53 | 1.0 | 1.0 | 0.00 | 0.02 | 0.02 | 79 | 1018.4 |
| 20260905030804 | 54 | 53 | 1.0 | 1.0 | 0.00 | 0.02 | 0.02 | 78 | 1018.5 |
| 20260905030304 | 54 | 53 | 1.0 | 1.0 | 0.00 | 0.02 | 0.02 | 78 | 1018.3 |
| 20260905025804 | 54 | 53 | 1.0 | 1.0 | 0.00 | 0.02 | 0.02 | 77 | 1018.4 |
| 20260905025306 | 54 | 53 | 1.0 | 1.0 | 0.00 | 0.02 | 0.02 | 77 | 1018.2 |
| 20260905024804 | 54 | 53 | 1.0 | 1.0 | 0.00 | 0.02 | 0.02 | 77 | 1018.0 |
| 20260905024303 | 55 | 53 | 1.0 | 1.0 | 0.00 | 0.02 | 0.02 | 77 | 1017.6 |
| 20260905023804 | 55 | 53 | 1.0 | 1.0 | 0.00 | 0.02 | 0.02 | 77 | 1017.9 |
| 20260905022804 | 55 | 53 | 1.0 | 1.0 | 0.00 | 0.02 | 0.02 | 75 | 1018.0 |
| 20260905022306 | 55 | 53 | 1.0 | 1.0 | 0.00 | 0.02 | 0.02 | 75 | 1017.9 |
| 20260905021804 | 55 | 53 | 1.0 | 1.0 | 0.00 | 0.02 | 0.02 | 75 | 1017.9 |
| 20260905021304 | 55 | 53 | 1.0 | 1.0 | 0.00 | 0.02 | 0.02 | 75 | 1017.8 |